Palm Beach International Airport (PBI/KPBI)




Flight Aircraft Arriving
CPX3264 SF34
KMIA - Miami International Airport
United StatesFlorida Miami, Florida
Flight Aircraft Departing
CPX3259 SF34
KMIA - Miami International Airport
United StatesFlorida Miami, Florida
Airport Information
Location: West Palm Beach, US
Coordinates: 26.6832 / -80.0956
Elevation:
Time Offset:
Local Time:
UTC Time:
Jet A Price: $1.18/lbs

Current Weather
METAR: KPBI 052356Z 00000KT 10SM TS SCT032CB BKN044 BKN090 25/25 A2999 RMK AO2 LTG DSNT SE-SW OCNL LTGICCG SE TS SE MOV E CB DSNT SE-W T02500250 $
TAF: KPBI 052327Z 0600/0624 VRB05KT P6SM -SHRA VCTS BKN035CB FM060200 VRB04KT P6SM FEW050 SCT100 SCT250 FM061800 12008KT P6SM VCTS BKN050CB PROB30 0618/0624 4SM TSRA BKN025CB

Recent Arrivals
Date Flight Type Depart
09/13/2019 CPX659 SF34 Miami International Airport (KMIA)
04/03/2019 CPX659 SF34 Miami International Airport (KMIA)
03/08/2019 CPX659 SF34 Miami International Airport (KMIA)
Recent Departures
Date Flight Type Arrive
09/14/2019 CPX664 SF34 Miami International Airport (KMIA)
04/04/2019 CPX664 SF34 Miami International Airport (KMIA)
03/11/2019 CPX664 SF34 Miami International Airport (KMIA)